createdAt,value
2022-12-03T00:00:47.920Z,98.50
2022-12-03T00:03:14.985Z,98.88
2022-12-03T00:05:48.518Z,98.87
2022-12-03T00:08:16.688Z,99.20
2022-12-03T00:10:43.623Z,99.38
2022-12-03T00:13:10.501Z,98.58
2022-12-03T00:15:37.442Z,98.44
2022-12-03T00:18:04.518Z,98.09
2022-12-03T00:20:31.408Z,98.76
2022-12-03T00:22:58.300Z,98.65
2022-12-03T00:25:25.217Z,98.89
2022-12-03T00:27:52.174Z,98.85
2022-12-03T00:30:19.109Z,98.84
2022-12-03T00:32:46.013Z,98.29
2022-12-03T00:35:13.014Z,98.33
2022-12-03T00:37:39.908Z,98.23
2022-12-03T00:40:07.459Z,98.79
2022-12-03T00:42:34.493Z,98.64
2022-12-03T00:45:01.471Z,98.94
2022-12-03T00:47:28.363Z,99.03
2022-12-03T00:49:55.297Z,99.02
2022-12-03T00:52:22.222Z,98.99
2022-12-03T00:54:49.350Z,98.64
2022-12-03T00:57:16.347Z,98.51
2022-12-03T00:59:43.253Z,98.98
2022-12-03T01:02:10.433Z,99.46
2022-12-03T01:04:37.681Z,98.62
2022-12-03T01:07:04.949Z,98.99
2022-12-03T01:09:32.345Z,98.83
2022-12-03T01:11:59.526Z,99.48
2022-12-03T01:14:26.673Z,99.16
2022-12-03T01:16:53.619Z,98.88
2022-12-03T01:19:20.508Z,99.39
2022-12-03T01:21:49.520Z,99.76
2022-12-03T01:24:17.299Z,99.23
2022-12-03T01:26:44.550Z,99.20
2022-12-03T01:29:11.433Z,98.65
2022-12-03T01:31:57.093Z,98.73
2022-12-03T01:34:23.992Z,98.53
2022-12-03T01:36:52.655Z,99.00
2022-12-03T01:39:20.053Z,98.74
2022-12-03T01:41:49.369Z,98.85
2022-12-03T01:44:24.119Z,99.10
2022-12-03T01:46:53.313Z,99.71
2022-12-03T01:49:35.143Z,99.00
2022-12-03T01:52:02.151Z,98.28
2022-12-03T01:54:38.286Z,99.31
2022-12-03T01:57:13.737Z,98.98
2022-12-03T01:59:40.778Z,99.84
2022-12-03T02:02:29.971Z,98.99
2022-12-03T02:04:58.078Z,99.69
2022-12-03T02:07:33.554Z,98.23
2022-12-03T02:10:02.975Z,98.61
2022-12-03T02:12:37.790Z,99.38
2022-12-03T02:15:07.482Z,98.55
2022-12-03T02:17:34.791Z,99.35
2022-12-03T02:20:04.440Z,98.90
2022-12-03T02:22:37.160Z,99.12
2022-12-03T02:25:19.449Z,98.96
2022-12-03T02:27:48.170Z,99.06
2022-12-03T02:30:19.275Z,99.05
2022-12-03T02:32:47.144Z,98.26
2022-12-03T02:35:19.681Z,99.30
2022-12-03T02:37:50.108Z,98.26
2022-12-03T02:40:24.961Z,98.83
2022-12-03T02:42:56.524Z,99.44
2022-12-03T02:45:36.973Z,98.67
2022-12-03T02:48:12.011Z,98.99
2022-12-03T02:50:46.182Z,99.15
2022-12-03T02:53:17.885Z,98.35
2022-12-03T02:55:45.525Z,98.59
2022-12-03T02:58:12.991Z,98.46
2022-12-03T03:00:40.651Z,98.38
2022-12-03T03:03:08.760Z,98.91
2022-12-03T03:05:37.943Z,99.06
2022-12-03T03:08:05.698Z,98.49
2022-12-03T03:10:35.363Z,99.18
2022-12-03T03:13:06.542Z,98.63
2022-12-03T03:15:35.984Z,99.13
2022-12-03T03:18:03.287Z,98.21
2022-12-03T03:20:30.321Z,98.86
2022-12-03T03:23:06.301Z,98.83
2022-12-03T03:25:33.871Z,97.81
2022-12-03T03:28:00.820Z,98.55
2022-12-03T03:30:27.988Z,98.42
2022-12-03T03:32:55.047Z,98.03
2022-12-03T03:35:23.916Z,99.01
2022-12-03T03:37:52.497Z,98.40
2022-12-03T03:40:21.252Z,98.76
2022-12-03T03:42:49.036Z,97.92
2022-12-03T03:45:16.707Z,98.74
2022-12-03T03:47:44.290Z,98.38
2022-12-03T03:50:12.935Z,98.89
2022-12-03T03:52:41.296Z,98.46
2022-12-03T03:55:10.540Z,98.46
2022-12-03T03:57:38.527Z,98.97
2022-12-03T04:00:08.319Z,98.27
2022-12-03T04:02:36.558Z,98.29
2022-12-03T04:05:03.994Z,98.31
2022-12-03T04:07:30.975Z,98.22
2022-12-03T04:09:57.905Z,99.12
2022-12-03T04:12:44.014Z,99.11
2022-12-03T04:15:10.973Z,98.68
2022-12-03T04:17:37.956Z,99.18
2022-12-03T04:20:05.529Z,98.52
2022-12-03T04:22:41.606Z,99.20
2022-12-03T04:25:28.957Z,98.81
2022-12-03T04:28:14.426Z,98.97
2022-12-03T04:30:41.329Z,99.43
2022-12-03T04:33:26.960Z,98.72
2022-12-03T04:35:53.926Z,98.95
2022-12-03T04:38:20.922Z,98.48
2022-12-03T04:41:06.268Z,98.93
2022-12-03T04:43:34.768Z,98.65
2022-12-03T04:46:02.484Z,98.32
2022-12-03T04:48:29.913Z,98.60
2022-12-03T04:50:56.787Z,98.71
2022-12-03T04:53:23.624Z,98.02
2022-12-03T04:55:50.590Z,97.83
2022-12-03T04:58:17.573Z,98.29
2022-12-03T05:00:44.557Z,98.28
2022-12-03T05:03:11.501Z,98.86
2022-12-03T05:05:38.449Z,98.37
2022-12-03T05:08:05.722Z,98.31
2022-12-03T05:10:32.740Z,98.95
2022-12-03T05:12:59.580Z,98.20
2022-12-03T05:15:26.446Z,98.91
2022-12-03T05:17:53.350Z,98.58
2022-12-03T05:20:38.698Z,99.02
2022-12-03T05:23:05.782Z,97.94
2022-12-03T05:25:32.805Z,99.14
2022-12-03T05:27:59.755Z,98.26
2022-12-03T05:30:26.818Z,98.68
2022-12-03T05:32:54.070Z,99.03
2022-12-03T05:35:20.984Z,99.02
2022-12-03T05:37:47.902Z,98.62
2022-12-03T05:40:15.310Z,98.83
2022-12-03T05:42:54.119Z,98.24
2022-12-03T05:45:32.441Z,98.56
2022-12-03T05:48:00.874Z,98.99
2022-12-03T05:50:30.814Z,98.78
2022-12-03T05:52:58.558Z,98.13
2022-12-03T05:55:26.503Z,98.58
2022-12-03T05:57:53.395Z,98.14
2022-12-03T06:00:23.927Z,98.57
2022-12-03T06:02:51.382Z,98.94
2022-12-03T06:05:22.206Z,98.41
2022-12-03T06:07:50.613Z,98.58
2022-12-03T06:10:20.955Z,98.01
2022-12-03T06:12:47.989Z,98.68
2022-12-03T06:15:15.256Z,98.60
2022-12-03T06:17:42.228Z,98.48
2022-12-03T06:20:13.643Z,98.63
2022-12-03T06:22:40.641Z,97.70
2022-12-03T06:25:08.329Z,98.71
2022-12-03T06:27:35.194Z,98.72
2022-12-03T06:30:02.577Z,97.66
2022-12-03T06:32:29.466Z,98.02
2022-12-03T06:34:56.676Z,97.96
2022-12-03T06:37:23.640Z,97.85
2022-12-03T06:39:50.498Z,98.23
2022-12-03T06:42:17.428Z,97.89
2022-12-03T06:44:44.387Z,98.33
2022-12-03T06:47:11.349Z,97.59
2022-12-03T06:49:38.220Z,98.24
2022-12-03T06:52:05.845Z,97.50
2022-12-03T06:54:32.776Z,97.96
2022-12-03T06:57:00.431Z,98.29
2022-12-03T06:59:27.432Z,97.65
2022-12-03T07:01:54.355Z,97.54
2022-12-03T07:04:21.285Z,97.17
2022-12-03T07:06:48.212Z,98.14
2022-12-03T07:09:17.113Z,97.14
2022-12-03T07:11:44.016Z,97.51
2022-12-03T07:14:13.797Z,97.88
2022-12-03T07:16:43.484Z,97.02
2022-12-03T07:19:11.119Z,96.59
2022-12-03T07:21:38.579Z,97.48
2022-12-03T07:24:06.246Z,97.69
2022-12-03T07:26:33.216Z,97.40
2022-12-03T07:29:00.342Z,96.84
2022-12-03T07:31:27.434Z,96.88
2022-12-03T07:33:55.041Z,96.86
2022-12-03T07:36:22.315Z,96.03
2022-12-03T07:38:49.279Z,96.89
2022-12-03T07:41:16.172Z,97.15
2022-12-03T07:43:44.881Z,96.89
2022-12-03T07:46:11.964Z,96.13
2022-12-03T07:48:38.960Z,96.12
2022-12-03T07:51:06.039Z,96.18
2022-12-03T07:53:32.970Z,96.79
2022-12-03T07:55:59.944Z,95.98
2022-12-03T07:58:26.852Z,95.96
2022-12-03T08:00:53.811Z,96.22
2022-12-03T08:03:20.765Z,96.25
2022-12-03T08:05:47.796Z,95.70
2022-12-03T08:08:15.092Z,95.78
2022-12-03T08:10:42.224Z,95.99
2022-12-03T08:13:15.122Z,95.38
2022-12-03T08:15:42.537Z,95.86
2022-12-03T08:18:18.618Z,95.59
2022-12-03T08:20:48.240Z,95.59
2022-12-03T08:23:24.018Z,95.37
2022-12-03T08:25:52.137Z,95.30
2022-12-03T08:28:20.492Z,95.25
2022-12-03T08:30:59.263Z,94.77
2022-12-03T08:33:35.492Z,94.39
2022-12-03T08:36:13.916Z,94.13
2022-12-03T08:38:41.302Z,93.76
2022-12-03T08:41:14.662Z,93.43
2022-12-03T08:43:43.951Z,93.32
2022-12-03T08:46:18.695Z,92.99
2022-12-03T08:48:49.054Z,93.24
2022-12-03T08:51:22.903Z,93.19
2022-12-03T08:53:58.129Z,93.49
2022-12-03T08:56:30.312Z,93.66
2022-12-03T08:59:15.703Z,93.62
2022-12-03T09:01:44.347Z,93.28
2022-12-03T09:04:45.514Z,93.75
2022-12-03T09:07:12.568Z,92.82
2022-12-03T09:09:39.458Z,93.17
2022-12-03T09:12:06.658Z,93.65
2022-12-03T09:14:33.521Z,93.11
2022-12-03T09:17:00.552Z,92.88
2022-12-03T09:19:31.044Z,93.04
2022-12-03T09:21:58.151Z,92.90
2022-12-03T09:24:25.226Z,92.65
2022-12-03T09:26:52.106Z,92.57
2022-12-03T09:29:19.100Z,92.74
2022-12-03T09:31:46.099Z,92.71
2022-12-03T09:34:13.115Z,92.70
2022-12-03T09:36:40.767Z,92.14
2022-12-03T09:39:07.728Z,92.05
2022-12-03T09:41:34.813Z,91.88
2022-12-03T09:44:04.369Z,90.89
2022-12-03T10:17:13.186Z,92.31
2022-12-03T10:19:40.565Z,92.91
2022-12-03T10:22:07.421Z,92.32
2022-12-03T10:24:36.131Z,92.01
2022-12-03T10:27:22.810Z,91.57
2022-12-03T10:29:57.728Z,91.96
2022-12-03T10:32:40.122Z,92.38
2022-12-03T10:35:14.248Z,91.30
2022-12-03T10:38:05.154Z,91.60
2022-12-03T10:40:37.057Z,91.24
2022-12-03T10:43:19.005Z,91.16
2022-12-03T10:45:50.533Z,91.35
2022-12-03T10:48:20.291Z,90.69
2022-12-03T10:50:52.811Z,91.56
2022-12-03T10:53:22.322Z,91.60
2022-12-03T10:55:52.809Z,91.60
2022-12-03T10:58:26.203Z,91.02
2022-12-03T11:00:55.741Z,91.32
2022-12-03T11:03:28.039Z,91.59
2022-12-03T11:05:57.178Z,90.98
2022-12-03T11:08:36.583Z,91.67
2022-12-03T11:11:09.114Z,91.64
2022-12-03T11:13:35.970Z,91.96
2022-12-03T11:16:05.773Z,91.56
2022-12-03T11:18:38.865Z,91.26
2022-12-03T11:21:14.644Z,91.13
2022-12-03T11:23:47.863Z,90.87
2022-12-03T11:26:27.154Z,91.03
2022-12-03T11:28:56.482Z,90.90
2022-12-03T11:31:47.422Z,91.32
2022-12-03T11:34:23.334Z,90.48
2022-12-03T11:37:11.803Z,91.22
2022-12-03T11:39:44.996Z,90.68
2022-12-03T11:42:26.857Z,91.48
2022-12-03T11:45:02.902Z,90.93
2022-12-03T11:47:34.760Z,91.85
2022-12-03T11:50:02.153Z,92.04
2022-12-03T11:52:40.227Z,91.97
2022-12-03T11:55:38.496Z,92.72
2022-12-03T11:58:15.356Z,92.93
2022-12-03T12:01:00.230Z,92.81
2022-12-03T12:03:33.396Z,92.32
2022-12-03T12:06:09.049Z,92.14
2022-12-03T12:08:42.561Z,91.54
2022-12-03T12:11:18.406Z,91.74
2022-12-03T12:13:45.442Z,91.94
2022-12-03T12:16:12.384Z,91.34
2022-12-03T12:18:53.743Z,91.74
2022-12-03T12:21:43.848Z,91.26
2022-12-03T12:24:29.633Z,90.93
2022-12-03T12:27:02.271Z,91.49
2022-12-03T12:29:29.339Z,90.61
2022-12-03T12:32:17.271Z,90.03
2022-12-03T12:34:49.535Z,90.59
2022-12-03T12:37:38.903Z,90.15
2022-12-03T12:40:17.775Z,90.43
2022-12-03T12:42:52.729Z,90.33
2022-12-03T12:45:21.408Z,90.01
2022-12-03T12:48:24.805Z,90.37
2022-12-03T12:51:22.157Z,90.18
2022-12-03T12:53:50.057Z,89.95
2022-12-03T12:56:31.135Z,90.57
2022-12-03T12:59:09.475Z,91.09
2022-12-03T13:01:36.703Z,91.54
2022-12-03T13:04:14.469Z,91.46
2022-12-03T13:06:42.237Z,91.45
2022-12-03T13:09:23.471Z,91.94
2022-12-03T13:11:57.563Z,92.30
2022-12-03T13:14:29.921Z,91.74
2022-12-03T13:16:59.143Z,92.22
2022-12-03T13:19:28.720Z,91.80
2022-12-03T13:22:02.160Z,92.77
2022-12-03T13:24:59.623Z,92.88
2022-12-03T13:27:32.921Z,92.99
2022-12-03T13:30:13.719Z,93.54
2022-12-03T13:32:42.221Z,93.56
2022-12-03T13:35:18.030Z,94.48
2022-12-03T13:37:45.196Z,94.11
2022-12-03T13:40:35.110Z,94.09
2022-12-03T13:43:12.471Z,94.39
2022-12-03T13:45:41.126Z,94.01
2022-12-03T13:48:45.060Z,94.17
2022-12-03T13:51:26.190Z,94.13
2022-12-03T13:53:53.824Z,94.53
2022-12-03T13:56:32.879Z,94.66
2022-12-03T13:59:01.393Z,94.23
2022-12-03T14:01:29.190Z,94.97
2022-12-03T14:03:56.921Z,94.52
2022-12-03T14:06:23.878Z,94.10
2022-12-03T14:08:51.566Z,94.09
2022-12-03T14:11:36.886Z,94.64
2022-12-03T14:14:03.855Z,94.21
2022-12-03T14:16:30.961Z,94.35
2022-12-03T14:18:57.923Z,94.62
2022-12-03T14:21:24.857Z,94.53
2022-12-03T14:23:51.800Z,94.30
2022-12-03T14:26:18.755Z,94.98
2022-12-03T14:28:45.623Z,94.38
2022-12-03T14:31:12.650Z,95.15
2022-12-03T14:33:39.595Z,94.60
2022-12-03T14:36:06.862Z,94.54
2022-12-03T14:38:33.815Z,94.63
2022-12-03T14:41:00.672Z,94.67
2022-12-03T14:43:27.596Z,94.81
2022-12-03T14:45:54.631Z,94.82
2022-12-03T14:48:21.590Z,94.60
2022-12-03T14:50:48.488Z,95.22
2022-12-03T14:53:15.398Z,95.12
2022-12-03T14:55:42.308Z,94.81
2022-12-03T14:58:09.240Z,95.04
2022-12-03T15:00:36.258Z,95.00
2022-12-03T15:03:03.245Z,95.56
2022-12-03T15:05:30.274Z,95.67
2022-12-03T15:07:57.531Z,95.21
2022-12-03T15:10:24.415Z,95.73
2022-12-03T15:12:51.248Z,95.30
2022-12-03T15:15:18.220Z,95.23
2022-12-03T15:17:47.364Z,95.31
2022-12-03T15:20:14.627Z,95.17
2022-12-03T15:22:41.762Z,95.66
2022-12-03T15:25:09.117Z,95.35
2022-12-03T15:27:36.380Z,94.89
2022-12-03T15:30:03.607Z,95.67
2022-12-03T15:32:30.603Z,94.75
2022-12-03T15:34:57.661Z,95.18
2022-12-03T15:37:27.788Z,95.52
2022-12-03T15:39:55.255Z,94.65
2022-12-03T15:42:22.343Z,95.18
2022-12-03T15:44:49.448Z,94.80
2022-12-03T15:47:16.408Z,94.29
2022-12-03T15:49:43.740Z,95.00
2022-12-03T15:52:10.659Z,95.18
2022-12-03T15:54:37.639Z,94.50
2022-12-03T15:57:04.610Z,94.66
2022-12-03T15:59:31.605Z,94.33
2022-12-03T16:01:58.606Z,94.90
2022-12-03T16:04:25.614Z,94.69
2022-12-03T16:06:52.596Z,94.12
2022-12-03T16:09:25.302Z,94.20
2022-12-03T16:11:54.321Z,94.05
2022-12-03T16:14:21.277Z,94.43
2022-12-03T16:16:48.152Z,94.55
2022-12-03T16:19:15.058Z,94.93
2022-12-03T16:21:42.326Z,95.11
2022-12-03T16:24:09.352Z,95.23
2022-12-03T16:26:36.355Z,95.33
2022-12-03T16:29:03.318Z,94.72
2022-12-03T16:31:30.486Z,94.67
2022-12-03T16:33:57.573Z,95.04
2022-12-03T16:36:24.476Z,95.65
2022-12-03T16:38:51.385Z,95.18
2022-12-03T16:41:18.729Z,95.38
2022-12-03T16:43:48.454Z,95.28
2022-12-03T16:46:15.486Z,95.26
2022-12-03T16:48:43.068Z,94.70
2022-12-03T16:51:10.641Z,95.25
2022-12-03T16:53:37.572Z,94.98
2022-12-03T16:56:04.737Z,95.63
2022-12-03T16:58:31.658Z,95.75
2022-12-03T17:00:58.626Z,95.35
2022-12-03T17:03:30.404Z,95.38
2022-12-03T17:06:00.863Z,95.62
2022-12-03T17:08:28.048Z,95.80
2022-12-03T17:10:55.081Z,95.47
2022-12-03T17:13:23.370Z,95.35
2022-12-03T17:15:50.981Z,95.84
2022-12-03T17:18:18.073Z,95.83
2022-12-03T17:20:45.101Z,95.73
2022-12-03T17:23:12.595Z,95.82
2022-12-03T17:25:39.573Z,95.23
2022-12-03T17:28:06.486Z,95.66
2022-12-03T17:30:33.409Z,95.97
2022-12-03T17:33:01.481Z,96.14
2022-12-03T17:35:28.739Z,95.60
2022-12-03T17:37:55.923Z,96.51
2022-12-03T17:40:22.963Z,96.39
2022-12-03T17:42:49.925Z,95.62
2022-12-03T17:45:17.196Z,95.56
2022-12-03T17:47:44.092Z,96.63
2022-12-03T17:50:11.204Z,95.94
2022-12-03T17:52:38.082Z,96.04
2022-12-03T17:55:19.844Z,96.11
2022-12-03T17:57:50.765Z,95.76
2022-12-03T18:00:18.237Z,95.86
2022-12-03T18:02:45.179Z,96.41
2022-12-03T18:05:13.243Z,96.20
2022-12-03T18:07:40.453Z,96.00
2022-12-03T18:10:08.722Z,96.27
2022-12-03T18:12:35.601Z,96.26
2022-12-03T18:15:02.519Z,96.07
2022-12-03T18:17:29.437Z,96.54
2022-12-03T18:19:56.747Z,96.32
2022-12-03T18:22:24.382Z,96.58
2022-12-03T18:24:51.921Z,96.15
2022-12-03T18:27:20.557Z,97.20
2022-12-03T18:29:47.615Z,96.13
2022-12-03T18:32:27.723Z,97.06
2022-12-03T18:34:57.198Z,96.41
2022-12-03T18:37:27.132Z,95.97
2022-12-03T18:39:55.500Z,96.96
2022-12-03T18:42:23.771Z,96.56
2022-12-03T18:44:52.949Z,95.99
2022-12-03T18:47:22.297Z,96.35
2022-12-03T18:49:49.529Z,95.85
2022-12-03T18:52:19.530Z,96.21
2022-12-03T18:54:46.969Z,96.72
2022-12-03T18:57:14.195Z,95.84
2022-12-03T18:59:41.444Z,96.62
2022-12-03T19:02:13.140Z,96.96
2022-12-03T19:04:49.234Z,96.85
2022-12-03T19:07:16.352Z,96.86
2022-12-03T19:09:43.624Z,96.95
2022-12-03T19:12:14.709Z,97.16
2022-12-03T19:14:41.972Z,97.03
2022-12-03T19:17:09.898Z,96.91
2022-12-03T19:19:37.602Z,97.30
2022-12-03T19:22:04.568Z,96.88
2022-12-03T19:24:31.506Z,96.39
2022-12-03T19:26:58.482Z,96.65
2022-12-03T19:29:25.533Z,96.93
2022-12-03T19:31:52.946Z,96.91
2022-12-03T19:34:20.265Z,96.46
2022-12-03T19:36:47.924Z,96.32
2022-12-03T19:39:14.930Z,96.43
2022-12-03T19:41:43.815Z,96.17
2022-12-03T19:44:16.845Z,96.74
2022-12-03T19:46:44.509Z,96.40
2022-12-03T19:49:11.926Z,96.96
2022-12-03T19:51:39.013Z,96.96
2022-12-03T19:54:08.261Z,96.66
2022-12-03T19:56:35.350Z,96.89
2022-12-03T19:59:02.648Z,97.46
2022-12-03T20:01:32.215Z,97.03
2022-12-03T20:04:01.336Z,96.46
2022-12-03T20:06:30.747Z,96.76
2022-12-03T20:09:03.579Z,97.80
2022-12-03T20:11:32.978Z,96.53
2022-12-03T20:14:02.505Z,96.60
2022-12-03T20:16:29.690Z,97.23
2022-12-03T20:19:02.620Z,97.52
2022-12-03T20:21:31.590Z,96.54
2022-12-03T20:23:58.704Z,96.52
2022-12-03T20:26:26.601Z,97.42
2022-12-03T20:28:55.062Z,96.96
2022-12-03T20:31:24.511Z,96.95
2022-12-03T20:33:55.869Z,96.79
2022-12-03T20:36:23.756Z,96.99
2022-12-03T20:38:55.125Z,97.28
2022-12-03T20:41:22.859Z,97.39
2022-12-03T20:43:50.423Z,96.42
2022-12-03T20:46:29.361Z,97.40
2022-12-03T20:48:57.602Z,96.73
2022-12-03T20:51:28.406Z,96.80
2022-12-03T20:53:56.423Z,97.71
2022-12-03T20:56:32.282Z,97.04
2022-12-03T20:59:05.094Z,97.54
2022-12-03T21:01:33.091Z,97.04
2022-12-03T21:04:00.125Z,97.02
2022-12-03T21:06:30.020Z,96.70
2022-12-03T21:08:59.381Z,96.96
2022-12-03T21:11:29.926Z,96.45
2022-12-03T21:13:58.326Z,96.94
2022-12-03T21:16:51.921Z,96.39
2022-12-03T21:19:20.476Z,96.23
2022-12-03T21:21:47.890Z,96.44
2022-12-03T21:24:15.258Z,97.63
2022-12-03T21:26:42.224Z,96.76
2022-12-03T21:29:09.288Z,97.04
2022-12-03T21:31:37.921Z,97.73
2022-12-03T21:34:05.245Z,97.72
2022-12-03T21:36:32.584Z,97.17
2022-12-03T21:38:59.742Z,97.51
2022-12-03T21:41:26.822Z,97.23
2022-12-03T21:43:53.928Z,97.35
2022-12-03T21:47:10.160Z,96.85
2022-12-03T21:49:08.170Z,97.74
2022-12-03T21:51:35.385Z,96.94
2022-12-03T21:54:02.478Z,97.70
2022-12-03T21:56:31.907Z,96.98
2022-12-03T21:58:59.161Z,96.86
2022-12-03T22:01:26.120Z,96.81
2022-12-03T22:03:53.127Z,96.88
2022-12-03T22:06:20.331Z,97.69
2022-12-03T22:08:48.545Z,96.92
2022-12-03T22:11:18.764Z,96.97
2022-12-03T22:13:45.810Z,96.90
2022-12-03T22:16:15.952Z,96.94
2022-12-03T22:18:43.025Z,96.68
2022-12-03T22:21:12.788Z,98.01
2022-12-03T22:23:39.768Z,97.64
2022-12-03T22:26:09.446Z,97.38
2022-12-03T22:28:36.394Z,97.75
2022-12-03T22:31:07.288Z,97.37
2022-12-03T22:33:34.826Z,97.68
2022-12-03T22:36:05.266Z,98.12
2022-12-03T22:38:32.377Z,97.79
2022-12-03T22:40:59.688Z,97.15
2022-12-03T22:43:26.560Z,97.63
2022-12-03T22:45:56.561Z,97.53
2022-12-03T22:48:24.053Z,97.16
2022-12-03T22:50:52.528Z,97.75
2022-12-03T22:53:19.867Z,97.33
2022-12-03T22:55:58.486Z,97.21
2022-12-03T22:58:27.021Z,96.77
2022-12-03T23:00:59.739Z,97.54
2022-12-03T23:03:29.413Z,97.13
2022-12-03T23:05:56.718Z,97.09
2022-12-03T23:08:24.040Z,97.70
2022-12-03T23:10:52.671Z,96.82
2022-12-03T23:13:20.617Z,96.45
2022-12-03T23:15:52.162Z,97.03
2022-12-03T23:18:19.980Z,97.53
2022-12-03T23:20:49.609Z,97.23
2022-12-03T23:23:17.273Z,96.20
2022-12-03T23:25:44.380Z,96.45
2022-12-03T23:28:11.261Z,96.26
2022-12-03T23:30:39.776Z,97.04
2022-12-03T23:33:07.264Z,96.40
2022-12-03T23:35:34.446Z,96.72
2022-12-03T23:38:01.337Z,96.54
2022-12-03T23:40:28.332Z,97.33
2022-12-03T23:42:55.256Z,96.26
2022-12-03T23:45:22.288Z,96.36
2022-12-03T23:47:52.352Z,96.92
2022-12-03T23:50:21.883Z,97.24
2022-12-03T23:52:48.888Z,96.50
2022-12-03T23:55:15.928Z,96.80
2022-12-03T23:57:42.835Z,97.28
